Palmdale Regional/USAF Plant 42 Airport
KPMD : now visible

Airfield :











YOU CAN JOIN US ON...

 
LOGIN :

Register | Disclaimer

   EN    FR    IT 

 









Legend :    VFR   Marginal VFR   IFR   Intensive IFR   Very Intensive IFR
Visi :
Ceiling :
>= 8 km
>= 3000ft
5 to 8 km
1000 to 3000 ft
1500m to 5 km
500 to 1000 ft
800 to 1500m
200 to 500 ft
< 800m
< 200 ft
Symbols :   Thunderstorms  Fog  Heavy snow  Heavy precipitations  Wind > 20 kt






- Airport Elevation : 2543 ft
- IATA code : PMD


KPMD - Palmdale Regional/USAF Plant 42

CURRENT METAR :
  • 191653Z 36006KT 10SM CLR 33/09 A2993 RMK AO2 SLP098 T03280089

EXPIRED METARs :
  • 191553Z 30008KT 10SM CLR 31/08 A2994 RMK AO2 SLP102 T03060083
  • 191453Z 30004KT 10SM CLR 28/09 A2995 RMK AO2 SLP105 T02830089 51006

TAF KPMD
Valid from the 19 at 12:00 until the 20 at 12:00 UTC


191127Z 1912/2012 21004KT P6SM SKC
FM191400 21008KT P6SM SKC
FM191800 35005KT P6SM SKC
FM192300 24014G20KT P6SM SKC
FM200300 27012KT P6SM SKC
FM200600 23006KT P6SM SKC
KZLA FIR / North America



MET'MAP, your aeronautical weather chart ! - Copyright ORBIFLY December 2007 - Disclaimer

ORBIFLY MET'MAP TEAM :

Programming & Development : Alexandra Zaïnal
Original concept : Baudouin d'Aumeries
Technical & hardware support : Manuel Goepfert
Assistance : Marc-Olivier Méhu




SOURCES & CREDITS :

   NOAA       Earth
Advisory